Time,TemperatureF,DewpointF,PressureIn,WindDirection,WindDirectionDegrees,WindSpeedMPH,WindSpeedGustMPH,Humidity,HourlyPrecipIn,Conditions,Clouds,dailyrainin,SolarRadiationWatts/m^2,SoftwareType,DateUTC
2013-05-28 00:01:00,52.0,43.0,-100.00,ENE,78,1.0,3.0,72,0.00,,,0.00,0.000000,,2013-05-28 05:01:00,
2013-05-28 00:22:00,52.0,43.0,-100.00,ENE,78,1.0,3.0,72,0.00,,,0.00,0.000000,,2013-05-28 05:22:00,
2013-05-28 00:33:00,52.0,43.0,-100.00,ENE,78,1.0,3.0,72,0.00,,,0.00,0.000000,,2013-05-28 05:33:00,
2013-05-28 00:42:00,52.0,43.0,-100.00,ENE,78,1.0,3.0,72,0.00,,,0.00,0.000000,,2013-05-28 05:42:00,
2013-05-28 00:52:00,52.0,43.0,-100.00,ENE,78,1.0,3.0,72,0.00,,,0.00,0.000000,,2013-05-28 05:52:00,
2013-05-28 01:01:00,55.0,41.0,-100.00,ESE,114,2.0,4.0,58,0.00,,,0.00,0.000000,,2013-05-28 06:01:00,
2013-05-28 01:22:00,55.0,41.0,-100.00,ESE,114,2.0,4.0,58,0.00,,,0.00,0.000000,,2013-05-28 06:22:00,
2013-05-28 01:32:00,55.0,41.0,-100.00,ESE,114,2.0,4.0,58,0.00,,,0.00,0.000000,,2013-05-28 06:32:00,
2013-05-28 01:42:00,55.0,41.0,-100.00,ESE,114,2.0,4.0,58,0.00,,,0.00,0.000000,,2013-05-28 06:42:00,
2013-05-28 01:52:00,55.0,41.0,-100.00,ESE,114,2.0,4.0,58,0.00,,,0.00,0.000000,,2013-05-28 06:52:00,
2013-05-28 02:01:00,55.0,41.0,-100.00,East,98,2.0,5.0,59,0.00,,,0.00,0.000000,,2013-05-28 07:01:00,
2013-05-28 02:22:00,55.0,41.0,-100.00,East,98,2.0,5.0,59,0.00,,,0.00,0.000000,,2013-05-28 07:22:00,
2013-05-28 02:32:00,55.0,41.0,-100.00,East,98,2.0,5.0,59,0.00,,,0.00,0.000000,,2013-05-28 07:32:00,
2013-05-28 02:42:00,55.0,41.0,-100.00,East,98,2.0,5.0,59,0.00,,,0.00,0.000000,,2013-05-28 07:42:00,
2013-05-28 02:52:00,55.0,41.0,-100.00,East,98,2.0,5.0,59,0.00,,,0.00,0.000000,,2013-05-28 07:52:00,
2013-05-28 03:01:00,55.0,41.0,-100.00,SE,128,2.0,6.0,60,0.00,,,0.00,0.000000,,2013-05-28 08:01:00,
2013-05-28 03:22:00,55.0,41.0,-100.00,SE,128,2.0,6.0,60,0.00,,,0.00,0.000000,,2013-05-28 08:22:00,
2013-05-28 03:32:00,55.0,41.0,-100.00,SE,128,2.0,6.0,60,0.00,,,0.00,0.000000,,2013-05-28 08:32:00,
2013-05-28 03:42:00,55.0,41.0,-100.00,SE,128,2.0,6.0,60,0.00,,,0.00,0.000000,,2013-05-28 08:42:00,
2013-05-28 03:52:00,55.0,41.0,-100.00,SE,128,2.0,6.0,60,0.00,,,0.00,0.000000,,2013-05-28 08:52:00,
2013-05-28 04:01:00,54.0,42.0,-100.00,East,87,2.0,4.0,63,0.00,,,0.00,0.000000,,2013-05-28 09:01:00,
2013-05-28 04:22:00,54.0,42.0,-100.00,East,87,2.0,4.0,63,0.00,,,0.00,0.000000,,2013-05-28 09:22:00,
2013-05-28 04:33:00,54.0,42.0,-100.00,East,87,2.0,4.0,63,0.00,,,0.00,0.000000,,2013-05-28 09:33:00,
2013-05-28 04:43:00,54.0,42.0,-100.00,East,87,2.0,4.0,63,0.00,,,0.00,0.000000,,2013-05-28 09:43:00,
2013-05-28 04:54:00,54.0,42.0,-100.00,East,87,2.0,4.0,63,0.00,,,0.00,0.000000,,2013-05-28 09:54:00,
2013-05-28 05:01:00,53.0,43.0,-100.00,SE,135,4.0,10.0,69,0.00,,,0.00,0.000000,,2013-05-28 10:01:00,
2013-05-28 05:23:00,53.0,43.0,-100.00,SE,135,4.0,10.0,69,0.00,,,0.00,0.000000,,2013-05-28 10:23:00,
2013-05-28 05:32:00,53.0,43.0,-100.00,SE,135,4.0,10.0,69,0.00,,,0.00,0.000000,,2013-05-28 10:32:00,
2013-05-28 05:43:00,53.0,43.0,-100.00,SE,135,4.0,10.0,69,0.00,,,0.00,0.000000,,2013-05-28 10:43:00,
2013-05-28 05:53:00,53.0,43.0,-100.00,SE,135,4.0,10.0,69,0.00,,,0.00,0.000000,,2013-05-28 10:53:00,
2013-05-28 06:01:00,52.0,43.0,-100.00,East,90,3.0,6.0,72,0.00,,,0.00,15.000000,,2013-05-28 11:01:00,
2013-05-28 06:22:00,52.0,43.0,-100.00,East,90,3.0,6.0,72,0.00,,,0.00,15.000000,,2013-05-28 11:22:00,
2013-05-28 06:32:00,52.0,43.0,-100.00,East,90,3.0,6.0,72,0.00,,,0.00,15.000000,,2013-05-28 11:32:00,
2013-05-28 06:42:00,52.0,43.0,-100.00,East,90,3.0,6.0,72,0.00,,,0.00,15.000000,,2013-05-28 11:42:00,
2013-05-28 06:52:00,52.0,43.0,-100.00,East,90,3.0,6.0,72,0.00,,,0.00,15.000000,,2013-05-28 11:52:00,
2013-05-28 07:01:00,54.0,44.0,-100.00,SE,124,5.0,9.0,69,0.00,,,0.00,79.000000,,2013-05-28 12:01:00,
2013-05-28 07:22:00,54.0,44.0,-100.00,SE,124,5.0,9.0,69,0.00,,,0.00,79.000000,,2013-05-28 12:22:00,
2013-05-28 07:32:00,54.0,44.0,-100.00,SE,124,5.0,9.0,69,0.00,,,0.00,79.000000,,2013-05-28 12:32:00,
2013-05-28 07:42:00,54.0,44.0,-100.00,SE,124,5.0,9.0,69,0.00,,,0.00,79.000000,,2013-05-28 12:42:00,
2013-05-28 07:52:00,54.0,44.0,-100.00,SE,124,5.0,9.0,69,0.00,,,0.00,79.000000,,2013-05-28 12:52:00,
2013-05-28 08:01:00,55.0,43.0,-100.00,SE,128,6.0,11.0,65,0.00,,,0.00,172.000000,,2013-05-28 13:01:00,
2013-05-28 08:22:00,55.0,43.0,-100.00,SE,128,6.0,11.0,65,0.00,,,0.00,172.000000,,2013-05-28 13:22:00,
2013-05-28 08:32:00,55.0,43.0,-100.00,SE,128,6.0,11.0,65,0.00,,,0.00,172.000000,,2013-05-28 13:32:00,
2013-05-28 08:42:00,55.0,43.0,-100.00,SE,128,6.0,11.0,65,0.00,,,0.00,172.000000,,2013-05-28 13:42:00,
2013-05-28 08:52:00,55.0,43.0,-100.00,SE,128,6.0,11.0,65,0.00,,,0.00,172.000000,,2013-05-28 13:52:00,
2013-05-28 09:01:00,55.0,44.0,-100.00,ESE,117,5.0,9.0,66,0.00,,,0.00,139.000000,,2013-05-28 14:01:00,
2013-05-28 09:22:00,55.0,44.0,-100.00,ESE,117,5.0,9.0,66,0.00,,,0.00,139.000000,,2013-05-28 14:22:00,
2013-05-28 09:32:00,55.0,44.0,-100.00,ESE,117,5.0,9.0,66,0.00,,,0.00,139.000000,,2013-05-28 14:32:00,
2013-05-28 09:42:00,55.0,44.0,-100.00,ESE,117,5.0,9.0,66,0.00,,,0.00,139.000000,,2013-05-28 14:42:00,
2013-05-28 09:52:00,55.0,44.0,-100.00,ESE,117,5.0,9.0,66,0.00,,,0.00,139.000000,,2013-05-28 14:52:00,
2013-05-28 10:01:00,56.0,46.0,-100.00,SE,128,5.0,10.0,68,0.00,,,0.00,128.000000,,2013-05-28 15:01:00,
2013-05-28 10:21:00,56.0,46.0,-100.00,SE,128,5.0,10.0,68,0.00,,,0.00,128.000000,,2013-05-28 15:21:00,
2013-05-28 10:33:00,56.0,46.0,-100.00,SE,128,5.0,10.0,68,0.00,,,0.00,128.000000,,2013-05-28 15:33:00,
2013-05-28 10:43:00,56.0,46.0,-100.00,SE,128,5.0,10.0,68,0.00,,,0.00,128.000000,,2013-05-28 15:43:00,
2013-05-28 10:53:00,56.0,46.0,-100.00,SE,128,5.0,10.0,68,0.00,,,0.00,128.000000,,2013-05-28 15:53:00,
2013-05-28 11:01:00,57.0,48.0,-100.00,ESE,121,6.0,10.0,72,0.00,,,0.00,206.000000,,2013-05-28 16:01:00,
2013-05-28 11:23:00,57.0,48.0,-100.00,ESE,121,6.0,10.0,72,0.00,,,0.00,206.000000,,2013-05-28 16:23:00,
2013-05-28 11:33:00,57.0,48.0,-100.00,ESE,121,6.0,10.0,72,0.00,,,0.00,206.000000,,2013-05-28 16:33:00,
2013-05-28 11:42:00,57.0,48.0,-100.00,ESE,121,6.0,10.0,72,0.00,,,0.00,206.000000,,2013-05-28 16:42:00,
2013-05-28 11:52:00,57.0,48.0,-100.00,ESE,121,6.0,10.0,72,0.00,,,0.00,206.000000,,2013-05-28 16:52:00,
2013-05-28 12:01:00,61.0,50.0,-100.00,SSE,154,5.0,10.0,67,0.00,,,0.00,464.000000,,2013-05-28 17:01:00,
2013-05-28 12:22:00,61.0,50.0,-100.00,SSE,154,5.0,10.0,67,0.00,,,0.00,464.000000,,2013-05-28 17:22:00,
2013-05-28 12:32:00,61.0,50.0,-100.00,SSE,154,5.0,10.0,67,0.00,,,0.00,464.000000,,2013-05-28 17:32:00,
2013-05-28 12:42:00,61.0,50.0,-100.00,SSE,154,5.0,10.0,67,0.00,,,0.00,464.000000,,2013-05-28 17:42:00,
2013-05-28 12:52:00,61.0,50.0,-100.00,SSE,154,5.0,10.0,67,0.00,,,0.00,464.000000,,2013-05-28 17:52:00,
2013-05-28 13:01:00,63.0,51.0,-100.00,SSE,167,6.0,11.0,65,0.00,,,0.00,500.000000,,2013-05-28 18:01:00,
2013-05-28 13:22:00,63.0,51.0,-100.00,SSE,167,6.0,11.0,65,0.00,,,0.00,500.000000,,2013-05-28 18:22:00,
2013-05-28 13:32:00,63.0,51.0,-100.00,SSE,167,6.0,11.0,65,0.00,,,0.00,500.000000,,2013-05-28 18:32:00,
2013-05-28 13:42:00,63.0,51.0,-100.00,SSE,167,6.0,11.0,65,0.00,,,0.00,500.000000,,2013-05-28 18:42:00,
2013-05-28 13:52:00,63.0,51.0,-100.00,SSE,167,6.0,11.0,65,0.00,,,0.00,500.000000,,2013-05-28 18:52:00,
2013-05-28 14:01:00,62.0,51.0,-100.00,SSE,163,6.0,11.0,66,0.00,,,0.00,554.000000,,2013-05-28 19:01:00,
2013-05-28 14:21:00,62.0,51.0,-100.00,SSE,163,6.0,11.0,66,0.00,,,0.00,554.000000,,2013-05-28 19:21:00,
2013-05-28 14:32:00,62.0,51.0,-100.00,SSE,163,6.0,11.0,66,0.00,,,0.00,554.000000,,2013-05-28 19:32:00,
2013-05-28 14:42:00,62.0,51.0,-100.00,SSE,163,6.0,11.0,66,0.00,,,0.00,554.000000,,2013-05-28 19:42:00,
2013-05-28 14:52:00,62.0,51.0,-100.00,SSE,163,6.0,11.0,66,0.00,,,0.00,554.000000,,2013-05-28 19:52:00,
2013-05-28 15:01:00,62.0,51.0,-100.00,SE,145,5.0,10.0,68,0.00,,,0.00,347.000000,,2013-05-28 20:01:00,
2013-05-28 15:22:00,62.0,51.0,-100.00,SE,145,5.0,10.0,68,0.00,,,0.00,347.000000,,2013-05-28 20:22:00,
2013-05-28 15:32:00,62.0,51.0,-100.00,SE,145,5.0,10.0,68,0.00,,,0.00,347.000000,,2013-05-28 20:32:00,
2013-05-28 15:42:00,62.0,51.0,-100.00,SE,145,5.0,10.0,68,0.00,,,0.00,347.000000,,2013-05-28 20:42:00,
2013-05-28 15:52:00,62.0,51.0,-100.00,SE,145,5.0,10.0,68,0.00,,,0.00,347.000000,,2013-05-28 20:52:00,
2013-05-28 16:01:00,62.0,52.0,-100.00,South,189,3.0,10.0,71,0.00,,,0.00,226.000000,,2013-05-28 21:01:00,
2013-05-28 16:22:00,62.0,52.0,-100.00,South,189,3.0,10.0,71,0.00,,,0.00,226.000000,,2013-05-28 21:22:00,
2013-05-28 16:33:00,62.0,52.0,-100.00,South,189,3.0,10.0,71,0.00,,,0.00,226.000000,,2013-05-28 21:33:00,
2013-05-28 16:43:00,62.0,52.0,-100.00,South,189,3.0,10.0,71,0.00,,,0.00,226.000000,,2013-05-28 21:43:00,
2013-05-28 16:53:00,62.0,52.0,-100.00,South,189,3.0,10.0,71,0.00,,,0.00,226.000000,,2013-05-28 21:53:00,
2013-05-28 17:01:00,62.0,53.0,-100.00,SSW,208,3.0,6.0,72,0.00,,,0.00,120.000000,,2013-05-28 22:01:00,
2013-05-28 17:22:00,62.0,53.0,-100.00,SSW,208,3.0,6.0,72,0.00,,,0.00,120.000000,,2013-05-28 22:22:00,
2013-05-28 17:33:00,62.0,53.0,-100.00,SSW,208,3.0,6.0,72,0.00,,,0.00,120.000000,,2013-05-28 22:33:00,
2013-05-28 17:42:00,62.0,53.0,-100.00,SSW,208,3.0,6.0,72,0.00,,,0.00,120.000000,,2013-05-28 22:42:00,
2013-05-28 17:52:00,62.0,53.0,-100.00,SSW,208,3.0,6.0,72,0.00,,,0.00,120.000000,,2013-05-28 22:52:00,
2013-05-28 18:01:00,62.0,53.0,-100.00,South,177,4.0,8.0,73,0.00,,,0.00,144.000000,,2013-05-28 23:01:00,
2013-05-28 18:22:00,62.0,53.0,-100.00,South,177,4.0,8.0,73,0.00,,,0.00,144.000000,,2013-05-28 23:22:00,
2013-05-28 18:32:00,62.0,53.0,-100.00,South,177,4.0,8.0,73,0.00,,,0.00,144.000000,,2013-05-28 23:32:00,
2013-05-28 18:42:00,62.0,53.0,-100.00,South,177,4.0,8.0,73,0.00,,,0.00,144.000000,,2013-05-28 23:42:00,
2013-05-28 18:52:00,62.0,53.0,-100.00,South,177,4.0,8.0,73,0.00,,,0.00,144.000000,,2013-05-28 23:52:00,
2013-05-28 19:01:00,59.0,53.0,-100.00,SSW,195,5.0,9.0,80,0.00,,,0.00,107.000000,,2013-05-29 00:01:00,
2013-05-28 19:22:00,59.0,53.0,-100.00,SSW,195,5.0,9.0,80,0.00,,,0.00,107.000000,,2013-05-29 00:22:00,
2013-05-28 19:32:00,59.0,53.0,-100.00,SSW,195,5.0,9.0,80,0.00,,,0.00,107.000000,,2013-05-29 00:32:00,
2013-05-28 19:42:00,59.0,53.0,-100.00,SSW,195,5.0,9.0,80,0.00,,,0.00,107.000000,,2013-05-29 00:42:00,
2013-05-28 19:52:00,59.0,53.0,-100.00,SSW,195,5.0,9.0,80,0.00,,,0.00,107.000000,,2013-05-29 00:52:00,
2013-05-28 20:01:00,58.0,53.0,-100.00,SSW,210,4.0,9.0,82,0.00,,,0.00,26.000000,,2013-05-29 01:01:00,
2013-05-28 20:22:00,58.0,53.0,-100.00,SSW,210,4.0,9.0,82,0.00,,,0.00,26.000000,,2013-05-29 01:22:00,
2013-05-28 20:32:00,58.0,53.0,-100.00,SSW,210,4.0,9.0,82,0.00,,,0.00,26.000000,,2013-05-29 01:32:00,
2013-05-28 20:42:00,58.0,53.0,-100.00,SSW,210,4.0,9.0,82,0.00,,,0.00,26.000000,,2013-05-29 01:42:00,
2013-05-28 20:52:00,58.0,53.0,-100.00,SSW,210,4.0,9.0,82,0.00,,,0.00,26.000000,,2013-05-29 01:52:00,
2013-05-28 21:01:00,57.0,53.0,-100.00,SSW,201,3.0,6.0,87,0.00,,,0.00,3.000000,,2013-05-29 02:01:00,
2013-05-28 21:22:00,57.0,53.0,-100.00,SSW,201,3.0,6.0,87,0.00,,,0.00,3.000000,,2013-05-29 02:22:00,
2013-05-28 21:32:00,57.0,53.0,-100.00,SSW,201,3.0,6.0,87,0.00,,,0.00,3.000000,,2013-05-29 02:32:00,
2013-05-28 21:42:00,57.0,53.0,-100.00,SSW,201,3.0,6.0,87,0.00,,,0.00,3.000000,,2013-05-29 02:42:00,
2013-05-28 21:52:00,57.0,53.0,-100.00,SSW,201,3.0,6.0,87,0.00,,,0.00,3.000000,,2013-05-29 02:52:00,
2013-05-28 22:01:00,55.0,52.0,-100.00,South,171,0.0,5.0,91,0.00,,,0.00,0.000000,,2013-05-29 03:01:00,
2013-05-28 22:22:00,55.0,52.0,-100.00,South,171,0.0,5.0,91,0.00,,,0.00,0.000000,,2013-05-29 03:22:00,
2013-05-28 22:33:00,55.0,52.0,-100.00,South,171,0.0,5.0,91,0.00,,,0.00,0.000000,,2013-05-29 03:33:00,
2013-05-28 22:43:00,55.0,52.0,-100.00,South,171,0.0,5.0,91,0.00,,,0.00,0.000000,,2013-05-29 03:43:00,
2013-05-28 22:53:00,55.0,52.0,-100.00,South,171,0.0,5.0,91,0.00,,,0.00,0.000000,,2013-05-29 03:53:00,
2013-05-28 23:01:00,55.0,52.0,-100.00,WSW,258,2.0,4.0,91,0.00,,,0.00,0.000000,,2013-05-29 04:01:00,
2013-05-28 23:23:00,55.0,52.0,-100.00,WSW,258,2.0,4.0,91,0.00,,,0.00,0.000000,,2013-05-29 04:23:00,
2013-05-28 23:33:00,55.0,52.0,-100.00,WSW,258,2.0,4.0,91,0.00,,,0.00,0.000000,,2013-05-29 04:33:00,
2013-05-28 23:42:00,55.0,52.0,-100.00,WSW,258,2.0,4.0,91,0.00,,,0.00,0.000000,,2013-05-29 04:42:00,
2013-05-28 23:52:00,55.0,52.0,-100.00,WSW,258,2.0,4.0,91,0.00,,,0.00,0.000000,,2013-05-29 04:52:00,